• Join FlightAware (Why Join?)
  • Login
  • US Flag 
06:55PM EDT


 

Airport Tracker/Info


-or-


 

Live Flight TrackerFlight Track Log ✈ CTL13 ✈ 23-Apr-2013 ✈ KMDW - KGRR

Flight Track Log - Related Links

Times and Time Zones

All times are in EDT time to prevent confusion due to time zone crossing. See the CTL13 flight status page for this flight to view local times or setup timezone preferences in your user account.

Time Position Orientation Groundspeed Altitude Reporting Facility
EDT Latitude Longitude Course Direction KTS MPH feet Rate Location/Type
11:18PM 41.7833 -87.7167 90° East 132 152 1,600  Level Chicago TRACON
11:19PM 41.7833 -87.6667 90° East 138 159 2,500 780 Climbing Chicago TRACON
11:20PM 41.7833 -87.6167 90° East 145 167 3,200 540 Climbing Chicago TRACON
11:21PM 41.7925 -87.5689 76° East 142 163 3,500 360 Climbing Chicago Center
11:22PM 41.7939 -87.5111 88° East 148 170 3,900 420 Climbing Chicago Center
11:23PM 41.7908 -87.4506 94° East 155 178 4,400 420 Climbing Chicago Center
11:24PM 41.7842 -87.3872 98° East 163 188 4,800 300 Climbing Chicago Center
11:25PM 41.7747 -87.3203 101° East 178 205 5,100 300 Climbing Chicago Center
11:26PM 41.7689 -87.2542 97° East 179 206 5,500 300 Climbing Chicago Center
11:27PM 41.7681 -87.1867 91° East 182 209 5,800 240 Climbing Chicago Center
11:28PM 41.7697 -87.1175 88° East 187 215 6,100 120 Climbing Chicago Center
11:29PM 41.7719 -87.0483 88° East 188 216 6,100  Level Chicago Center
11:30PM 41.7781 -86.9653 84° East 187 215 6,100  Level Chicago Center
11:31PM 41.8111 -86.9117 50° Northeast 195 224 6,200 300 Climbing Chicago Center
11:32PM 41.8456 -86.8675 44° Northeast 178 205 6,800 420 Climbing Chicago Center
11:33PM 41.8825 -86.8247 41° Northeast 176 203 7,100 120 Climbing Chicago Center
11:34PM 41.9192 -86.7769 44° Northeast 183 211 7,100  Level Chicago Center
11:35PM 41.9586 -86.7253 44° Northeast 195 224 7,100  Level Chicago Center
11:36PM 41.9953 -86.6697 48° Northeast 197 227 7,100  Level Chicago Center
11:37PM 42.0344 -86.6169 45° Northeast 200 230 7,100 -60 Level Chicago Center
11:38PM 42.0736 -86.5636 45° Northeast 201 231 7,000  Descending Chicago Center
11:39PM 42.1122 -86.5136 44° Northeast 196 226 7,100  Climbing Chicago Center
11:40PM 42.1514 -86.4639 43° Northeast 193 222 7,100  Level Chicago Center
11:41PM 42.1911 -86.4139 43° Northeast 194 223 7,100  Level Chicago Center
11:42PM 42.2283 -86.3636 45° Northeast 192 221 7,100  Level Chicago Center
11:43PM 42.2747 -86.3050 43° Northeast 191 220 7,100 -60 Level Chicago Center
11:44PM 42.3106 -86.2575 44° Northeast 191 220 7,000  Descending Chicago Center
11:45PM 42.3497 -86.2100 42° Northeast 192 221 7,100  Climbing Chicago Center
11:46PM 42.3894 -86.1625 41° Northeast 192 221 7,100  Level Chicago Center
11:47PM 42.4275 -86.1128 44° Northeast 191 220 7,100  Level Chicago Center
11:48PM 42.4656 -86.0628 44° Northeast 191 220 7,100  Level Chicago Center
11:49PM 42.4986 -86.0058 52° Northeast 192 221 7,100 -300 Level Chicago Center
11:50PM 42.5297 -85.9433 56° Northeast 196 226 6,500 -720 Descending Chicago Center
11:51PM 42.5578 -85.8586 66° East 211 243 5,700 -660 Descending Chicago Center
11:52PM 42.5717 -85.7878 75° East 199 229 5,200 -600 Descending Chicago Center
11:53PM 42.5836 -85.7169 77° East 195 224 4,500 -600 Descending Chicago Center
11:54PM 42.5953 -85.6472 77° East 193 222 4,100 -240 Descending Chicago Center
11:55PM 42.6092 -85.5864 73° East 179 206 4,100 -60 Level Chicago Center
11:56PM 42.6375 -85.5381 51° Northeast 166 191 4,000 -300 Descending Chicago Center
11:57PM 42.6700 -85.5006 40° Northeast 162 186 3,500 -540 Descending Chicago Center
11:58PM 42.7169 -85.4872 12° North 171 197 3,000 -480 Descending Chicago Center
11:59PM 42.7525 -85.4903 356° North 149 171 2,600 -300 Descending Chicago Center
12:00AM 42.7828 -85.4983 349° North 126 145 2,500 -360 Descending Chicago Center
12:01AM 42.8128 -85.5033 353° North 115 132 1,900 -540 Descending Chicago Center
12:02AM 42.8417 -85.5097 351° North 110 127 1,500 -420 Descending Chicago Center
12:04AM 42.8667 -85.5167 11° North  Level FlightAware Approximate
12:11AM 42.8808 -85.5228 11° North  Level Estimated
12:12AM 42.8808 -85.5228 11° North  Level Estimated